Time;durP1;ratioP1;P1;durP2;ratioP2;P2;SDS_P1;SDS_P2;PMS_P1;PMS_P2;Temp;Humidity;BMP_temperature;BMP_pressure;BME280_temperature;BME280_humidity;BME280_pressure;Samples;Min_cycle;Max_cycle;Signal;HPM_P1;HPM_P2
2021/08/09 00:01:22;;;;;;;;;;;;;;;15.11;93.33;101189.03;5113921;28;19924;-77
2021/08/09 00:03:49;;;;;;;;;;;;;;;15.21;92.67;101190.09;5113422;28;19931;-77
2021/08/09 00:06:15;;;;;;;;;;;;;;;15.30;92.40;101186.00;5113623;28;19923;-77
2021/08/09 00:08:42;;;;;;;;;;;;;;;15.28;92.43;101189.69;5113558;28;19930;-77
2021/08/09 00:11:09;;;;;;;;;;;;;;;15.23;92.45;101185.59;5112517;28;19931;-77
2021/08/09 00:13:37;;;;;;;;;;;;;;;15.20;92.60;101190.19;5113499;28;19924;-77
2021/08/09 00:16:03;;;;;;;;;;;;;;;15.31;92.31;101179.84;5112878;28;19924;-77
2021/08/09 00:18:30;;;;;;;;;;;;;;;15.27;92.24;101183.59;5112945;28;19923;-77
2021/08/09 00:20:57;;;;;;;;;;;;;;;15.20;92.66;101191.03;5112857;28;20382;-77
2021/08/09 00:23:24;;;;;;;;;;;;;;;15.15;92.98;101185.25;5112917;28;19968;-77
2021/08/09 00:25:50;;;;;;;;;;;;;;;15.21;92.66;101184.88;5113093;28;20285;-77
2021/08/09 00:28:17;;;;;;;;;;;;;;;15.17;93.22;101183.38;5112710;28;20361;-77
2021/08/09 00:30:45;;;;;;;;;;;;;;;15.17;93.02;101187.78;5113376;28;19924;-77
2021/08/09 00:33:11;;;;;;;;;;;;;;;15.01;93.78;101188.81;5112617;28;19924;-77
2021/08/09 00:35:38;;;;;;;;;;;;;;;15.02;93.69;101189.66;5113017;28;20394;-78
2021/08/09 00:38:05;;;;;;;;;;;;;;;15.23;92.48;101187.38;5113040;28;19924;-78
2021/08/09 00:40:31;;;;;;;;;;;;;;;15.24;92.79;101183.81;5112972;28;19924;-78
2021/08/09 00:42:58;;;;;;;;;;;;;;;15.05;93.68;101185.97;5112801;28;20263;-78
2021/08/09 00:45:25;;;;;;;;;;;;;;;15.12;92.91;101190.72;5113164;28;19935;-78
2021/08/09 00:47:53;;;;;;;;;;;;;;;15.06;93.23;101192.91;5113167;28;19930;-78
2021/08/09 00:50:20;;;;;;;;;;;;;;;15.13;92.73;101192.41;5112846;28;19923;-78
2021/08/09 00:52:47;;;;;;;;;;;;;;;15.17;92.54;101191.25;5113065;28;19923;-78
2021/08/09 00:55:14;;;;;;;;;;;;;;;15.15;92.41;101194.91;5112748;28;20018;-78
2021/08/09 00:57:41;;;;;;;;;;;;;;;15.15;92.15;101195.75;5113069;28;20297;-78
2021/08/09 01:00:08;;;;;;;;;;;;;;;15.14;92.41;101185.38;5112378;28;19924;-78
2021/08/09 01:02:34;;;;;;;;;;;;;;;15.22;92.05;101194.41;5112612;28;19931;-78
2021/08/09 01:05:02;;;;;;;;;;;;;;;15.27;91.38;101188.00;5112861;28;19924;-77
2021/08/09 01:07:33;;;;;;;;;;;;;;;15.26;91.54;101189.81;5112574;28;19938;-78
2021/08/09 01:10:03;;;;;;;;;;;;;;;15.23;91.80;101200.47;5112743;28;19923;-78
2021/08/09 01:12:34;;;;;;;;;;;;;;;15.16;91.85;101204.47;5112518;28;20396;-78
2021/08/09 01:15:05;;;;;;;;;;;;;;;15.14;92.08;101199.31;5112339;28;19924;-78
2021/08/09 01:17:33;;;;;;;;;;;;;;;15.14;92.07;101203.72;5112945;28;19931;-78
2021/08/09 01:20:10;;;;;;;;;;;;;;;15.21;91.32;101202.38;5112230;28;19923;-78
2021/08/09 01:22:40;;;;;;;;;;;;;;;15.09;92.01;101201.41;5112552;28;20391;-78
2021/08/09 01:25:14;;;;;;;;;;;;;;;15.09;92.19;101198.78;5115524;28;19924;-78
2021/08/09 01:27:43;;;;;;;;;;;;;;;15.11;91.92;101202.16;5116436;28;19924;-78
2021/08/09 01:30:10;;;;;;;;;;;;;;;15.11;92.14;101193.44;5116423;28;19946;-78
2021/08/09 01:32:38;;;;;;;;;;;;;;;15.11;92.09;101196.91;5116238;28;19924;-78
2021/08/09 01:35:07;;;;;;;;;;;;;;;15.12;91.94;101192.50;5116239;28;20338;-78
2021/08/09 01:37:35;;;;;;;;;;;;;;;15.14;91.72;101194.06;5116331;28;20468;-78
2021/08/09 01:40:02;;;;;;;;;;;;;;;15.07;91.90;101190.19;5115774;28;19924;-77
2021/08/09 01:42:29;;;;;;;;;;;;;;;15.10;91.74;101194.38;5116376;28;20289;-78
2021/08/09 01:44:57;;;;;;;;;;;;;;;15.19;91.54;101188.53;5116048;28;19931;-78
2021/08/09 01:47:24;;;;;;;;;;;;;;;15.21;91.10;101189.28;5115995;28;19930;-78
2021/08/09 01:49:51;;;;;;;;;;;;;;;15.14;91.59;101190.63;5115775;28;20293;-77
2021/08/09 01:52:17;;;;;;;;;;;;;;;15.09;91.60;101187.47;5115960;28;19934;-77
2021/08/09 01:54:44;;;;;;;;;;;;;;;15.12;91.61;101187.25;5115841;28;20373;-78
2021/08/09 01:57:11;;;;;;;;;;;;;;;15.17;90.81;101178.13;5115475;28;19934;-77
2021/08/09 01:59:37;;;;;;;;;;;;;;;15.10;91.77;101179.50;5115959;28;19924;-78
2021/08/09 02:02:05;;;;;;;;;;;;;;;15.20;90.74;101185.78;5116328;28;19924;-78
2021/08/09 02:04:32;;;;;;;;;;;;;;;15.23;91.01;101180.38;5115973;28;19953;-78
2021/08/09 02:06:58;;;;;;;;;;;;;;;15.15;91.55;101177.41;5115370;28;20397;-78
2021/08/09 02:09:25;;;;;;;;;;;;;;;15.06;91.90;101178.03;5115869;28;19934;-78
2021/08/09 02:11:54;;;;;;;;;;;;;;;15.17;90.82;101177.31;5115336;28;19924;-78
2021/08/09 02:14:22;;;;;;;;;;;;;;;15.22;90.81;101177.84;5115525;28;19946;-78
2021/08/09 02:16:51;;;;;;;;;;;;;;;15.13;91.30;101179.31;5115664;28;19931;-78
2021/08/09 02:19:21;;;;;;;;;;;;;;;15.28;90.36;101173.94;5115031;28;20325;-78
2021/08/09 02:21:49;;;;;;;;;;;;;;;15.21;90.88;101173.53;5115623;28;19930;-78
2021/08/09 02:24:21;;;;;;;;;;;;;;;15.18;90.90;101168.50;5114934;28;19947;-78
2021/08/09 02:26:49;;;;;;;;;;;;;;;15.22;90.27;101169.97;5115261;28;20533;-78
2021/08/09 02:29:16;;;;;;;;;;;;;;;15.25;90.49;101172.38;5114916;28;19923;-78
2021/08/09 02:31:44;;;;;;;;;;;;;;;15.28;90.06;101169.53;5115440;28;19924;-77
2021/08/09 02:34:12;;;;;;;;;;;;;;;15.24;90.00;101158.44;5114211;28;19931;-77
2021/08/09 02:36:40;;;;;;;;;;;;;;;15.16;90.29;101163.38;5115278;28;19931;-76
2021/08/09 02:39:07;;;;;;;;;;;;;;;15.14;90.45;101167.88;5114645;28;19934;-77
2021/08/09 02:41:34;;;;;;;;;;;;;;;15.22;90.08;101154.25;5114797;28;20409;-77
2021/08/09 02:44:00;;;;;;;;;;;;;;;15.11;91.05;101148.91;5114958;28;19924;-77
2021/08/09 02:46:28;;;;;;;;;;;;;;;15.24;89.77;101153.19;5115155;28;19935;-77
2021/08/09 02:48:55;;;;;;;;;;;;;;;15.13;90.43;101160.97;5114685;28;19931;-77
2021/08/09 02:51:22;;;;;;;;;;;;;;;15.24;90.20;101152.38;5114812;28;19924;-77
2021/08/09 02:53:51;;;;;;;;;;;;;;;15.20;90.14;101161.38;5114589;28;19931;-77
2021/08/09 02:56:17;;;;;;;;;;;;;;;15.17;90.20;101158.97;5114622;28;19954;-77
2021/08/09 02:58:44;;;;;;;;;;;;;;;15.12;90.68;101159.25;5114530;28;19930;-77
2021/08/09 03:01:11;;;;;;;;;;;;;;;15.25;89.58;101156.66;5114341;28;19931;-77
2021/08/09 03:03:38;;;;;;;;;;;;;;;15.25;89.77;101164.50;5114819;28;19924;-77
2021/08/09 03:06:05;;;;;;;;;;;;;;;15.13;90.09;101160.09;5114529;28;19923;-77
2021/08/09 03:08:32;;;;;;;;;;;;;;;15.06;90.64;101156.25;5114658;28;19923;-77
2021/08/09 03:11:00;;;;;;;;;;;;;;;15.21;90.00;101160.44;5114107;28;20396;-76
2021/08/09 03:13:26;;;;;;;;;;;;;;;15.29;89.12;101160.75;5114214;28;19924;-76
2021/08/09 03:15:53;;;;;;;;;;;;;;;15.25;89.38;101151.41;5114494;28;19931;-76
2021/08/09 03:18:20;;;;;;;;;;;;;;;15.11;90.38;101154.16;5114207;28;19924;-77
2021/08/09 03:20:47;;;;;;;;;;;;;;;15.16;90.01;101149.44;5114252;28;19927;-78
2021/08/09 03:23:13;;;;;;;;;;;;;;;15.10;90.31;101149.81;5114032;28;19931;-77
2021/08/09 03:25:40;;;;;;;;;;;;;;;15.25;89.55;101141.75;5114060;28;19924;-78
2021/08/09 03:28:08;;;;;;;;;;;;;;;15.31;88.99;101150.13;5113686;28;20282;-78
2021/08/09 03:30:35;;;;;;;;;;;;;;;15.23;89.70;101142.81;5113857;28;19924;-78
2021/08/09 03:33:02;;;;;;;;;;;;;;;15.08;90.01;101146.47;5114030;28;19931;-78
2021/08/09 03:35:28;;;;;;;;;;;;;;;15.11;89.60;101144.50;5114074;28;19928;-78
2021/08/09 03:37:55;;;;;;;;;;;;;;;15.06;90.24;101143.97;5114075;28;19931;-77
2021/08/09 03:40:22;;;;;;;;;;;;;;;15.25;89.08;101135.69;5113467;28;20421;-78
2021/08/09 03:42:48;;;;;;;;;;;;;;;15.27;89.14;101133.78;5114689;28;19931;-78
2021/08/09 03:45:16;;;;;;;;;;;;;;;15.28;88.89;101137.25;5113310;28;19931;-77
2021/08/09 03:47:43;;;;;;;;;;;;;;;15.36;89.19;101140.19;5113159;28;19924;-78
2021/08/09 03:50:10;;;;;;;;;;;;;;;15.11;90.17;101139.25;5113345;28;19931;-78
2021/08/09 03:52:36;;;;;;;;;;;;;;;15.20;89.54;101136.00;5113471;28;19924;-78
2021/08/09 03:55:03;;;;;;;;;;;;;;;15.27;89.23;101141.66;5113582;28;19945;-78
2021/08/09 03:57:30;;;;;;;;;;;;;;;15.34;89.45;101129.81;5113396;28;19923;-78
2021/08/09 03:59:56;;;;;;;;;;;;;;;15.37;88.64;101129.59;5113628;28;19924;-78
2021/08/09 04:02:30;;;;;;;;;;;;;;;15.38;88.64;101133.88;5113321;28;20011;-78
2021/08/09 04:04:58;;;;;;;;;;;;;;;15.30;88.57;101138.00;5113390;28;19924;-77
2021/08/09 04:07:24;;;;;;;;;;;;;;;15.16;89.73;101128.47;5113616;28;20445;-77
2021/08/09 04:09:51;;;;;;;;;;;;;;;15.24;88.82;101131.41;5113605;28;19923;-78
2021/08/09 04:12:18;;;;;;;;;;;;;;;15.21;89.36;101132.44;5112886;28;19938;-77
2021/08/09 04:14:44;;;;;;;;;;;;;;;15.18;89.30;101127.41;5113510;28;20341;-77
2021/08/09 04:17:11;;;;;;;;;;;;;;;15.28;88.54;101135.47;5113153;28;19930;-78
2021/08/09 04:19:39;;;;;;;;;;;;;;;15.29;87.84;101124.06;5113125;28;19928;-78
2021/08/09 04:22:06;;;;;;;;;;;;;;;15.39;87.48;101130.34;5112846;28;19924;-75
2021/08/09 04:24:32;;;;;;;;;;;;;;;15.30;88.23;101132.75;5112953;28;19924;-78
2021/08/09 04:26:59;;;;;;;;;;;;;;;15.19;88.67;101133.50;5112742;28;19924;-73
2021/08/09 04:29:25;;;;;;;;;;;;;;;15.31;87.83;101132.66;5113050;28;20573;-74
2021/08/09 04:31:52;;;;;;;;;;;;;;;15.16;88.96;101120.59;5113132;28;19930;-78
2021/08/09 04:34:19;;;;;;;;;;;;;;;15.26;88.39;101126.88;5112690;28;20370;-77
2021/08/09 04:36:47;;;;;;;;;;;;;;;15.31;88.44;101126.53;5113087;28;19924;-76
2021/08/09 04:39:13;;;;;;;;;;;;;;;15.21;88.54;101121.13;5112828;28;19924;-77
2021/08/09 04:41:40;;;;;;;;;;;;;;;15.14;89.34;101119.84;5112758;28;19924;-77
2021/08/09 04:44:07;;;;;;;;;;;;;;;15.19;88.75;101117.75;5112904;28;19946;-80
2021/08/09 04:46:34;;;;;;;;;;;;;;;15.21;89.22;101118.50;5112871;28;20014;-80
2021/08/09 04:49:00;;;;;;;;;;;;;;;15.11;89.97;101118.28;5112445;28;19971;-80
2021/08/09 04:51:27;;;;;;;;;;;;;;;15.15;89.21;101121.53;5113227;28;19930;-75
2021/08/09 04:53:55;;;;;;;;;;;;;;;15.18;89.28;101116.06;5112689;28;19924;-74
2021/08/09 04:56:21;;;;;;;;;;;;;;;15.20;89.21;101115.00;5112446;28;20010;-75
2021/08/09 04:58:48;;;;;;;;;;;;;;;15.24;88.62;101118.28;5116025;28;19931;-76
2021/08/09 05:01:14;;;;;;;;;;;;;;;15.41;88.01;101112.72;5116926;28;19931;-75
2021/08/09 05:03:41;;;;;;;;;;;;;;;15.48;87.44;101109.66;5116674;28;19923;-75
2021/08/09 05:06:08;;;;;;;;;;;;;;;15.59;87.30;101115.84;5116553;28;19935;-76
2021/08/09 05:08:35;;;;;;;;;;;;;;;15.63;87.25;101105.97;5117049;28;19931;-75
2021/08/09 05:11:03;;;;;;;;;;;;;;;15.67;86.56;101102.19;5116453;28;19930;-75
2021/08/09 05:13:29;;;;;;;;;;;;;;;15.64;87.08;101094.50;5115768;28;19924;-75
2021/08/09 05:15:56;;;;;;;;;;;;;;;15.69;86.27;101095.06;5115899;28;19924;-75
2021/08/09 05:18:23;;;;;;;;;;;;;;;15.79;86.54;101092.63;5115819;28;19930;-75
2021/08/09 05:20:50;;;;;;;;;;;;;;;15.75;87.24;101093.78;5115455;28;19965;-74
2021/08/09 05:23:16;;;;;;;;;;;;;;;15.79;85.96;101090.00;5115128;28;20297;-74
2021/08/09 05:25:43;;;;;;;;;;;;;;;16.00;85.15;101090.22;5115745;28;19924;-75
2021/08/09 05:28:11;;;;;;;;;;;;;;;16.11;84.50;101087.69;5115855;28;19923;-75
2021/08/09 05:30:37;;;;;;;;;;;;;;;16.03;85.10;101090.88;5116328;28;19923;-75
2021/08/09 05:33:04;;;;;;;;;;;;;;;15.94;85.06;101086.28;5116264;28;19930;-75
2021/08/09 05:35:31;;;;;;;;;;;;;;;16.20;84.62;101092.25;5116296;28;20389;-76
2021/08/09 05:37:58;;;;;;;;;;;;;;;16.15;84.15;101088.28;5116102;28;19923;-75
2021/08/09 05:40:25;;;;;;;;;;;;;;;16.08;84.33;101093.13;5116462;28;19923;-75
2021/08/09 05:42:51;;;;;;;;;;;;;;;16.21;84.31;101091.31;5116397;28;19928;-75
2021/08/09 05:45:19;;;;;;;;;;;;;;;16.21;85.07;101095.69;5115740;28;19924;-74
2021/08/09 05:47:46;;;;;;;;;;;;;;;16.21;84.98;101091.31;5115924;28;19924;-75
2021/08/09 05:50:13;;;;;;;;;;;;;;;16.13;84.85;101092.81;5116351;28;19931;-74
2021/08/09 05:52:39;;;;;;;;;;;;;;;16.15;85.07;101097.00;5116238;28;19923;-75
2021/08/09 05:55:07;;;;;;;;;;;;;;;16.21;85.23;101088.69;5115721;28;19958;-75
2021/08/09 05:57:34;;;;;;;;;;;;;;;16.23;84.57;101084.13;5115775;28;20396;-74
2021/08/09 06:00:01;;;;;;;;;;;;;;;16.08;85.09;101090.50;5115802;28;19924;-75
2021/08/09 06:02:29;;;;;;;;;;;;;;;16.18;84.17;101094.13;5115700;28;19931;-74
2021/08/09 06:04:55;;;;;;;;;;;;;;;16.06;85.00;101088.00;5115958;28;19931;-74
2021/08/09 06:07:22;;;;;;;;;;;;;;;16.10;84.34;101086.00;5115489;28;19930;-76
2021/08/09 06:09:48;;;;;;;;;;;;;;;16.07;84.99;101081.81;5114893;28;19923;-73
2021/08/09 06:12:15;;;;;;;;;;;;;;;16.05;85.06;101090.72;5115244;28;19923;-73
2021/08/09 06:14:42;;;;;;;;;;;;;;;15.91;85.71;101089.13;5115757;28;19939;-73
2021/08/09 06:17:09;;;;;;;;;;;;;;;15.90;85.53;101087.44;5115329;28;19924;-74
2021/08/09 06:19:37;;;;;;;;;;;;;;;15.82;86.23;101092.38;5115378;28;19923;-73
2021/08/09 06:22:04;;;;;;;;;;;;;;;15.86;85.73;101088.63;5114888;28;19923;-74
2021/08/09 06:24:30;;;;;;;;;;;;;;;15.84;85.42;101093.97;5115421;28;19930;-73
2021/08/09 06:26:57;;;;;;;;;;;;;;;15.79;86.63;101088.19;5115274;28;19923;-73
2021/08/09 06:29:24;;;;;;;;;;;;;;;15.79;85.80;101092.63;5115428;28;19924;-74
2021/08/09 06:31:50;;;;;;;;;;;;;;;15.86;86.18;101086.00;5115183;28;19930;-74
2021/08/09 06:34:17;;;;;;;;;;;;;;;15.75;86.46;101097.25;5115211;28;19924;-74
2021/08/09 06:36:45;;;;;;;;;;;;;;;15.64;86.40;101084.03;5114916;28;19923;-74
2021/08/09 06:39:14;;;;;;;;;;;;;;;15.85;86.49;101085.16;5115081;28;19924;-73
2021/08/09 06:41:41;;;;;;;;;;;;;;;15.78;87.32;101083.91;5114830;28;20297;-74
2021/08/09 06:44:08;;;;;;;;;;;;;;;15.86;87.19;101078.13;5115022;28;19924;-74
2021/08/09 06:46:34;;;;;;;;;;;;;;;15.70;88.01;101077.56;5114834;28;19930;-75
2021/08/09 06:49:01;;;;;;;;;;;;;;;15.70;87.10;101074.94;5114951;28;19928;-76
2021/08/09 06:51:27;;;;;;;;;;;;;;;15.75;86.89;101083.28;5114786;28;19924;-76
2021/08/09 06:53:55;;;;;;;;;;;;;;;15.82;87.12;101080.09;5114924;28;19924;-76
2021/08/09 06:56:22;;;;;;;;;;;;;;;15.81;87.20;101085.47;5114386;28;19924;-76
2021/08/09 06:58:49;;;;;;;;;;;;;;;15.79;87.26;101084.75;5114918;28;19924;-75
2021/08/09 07:01:15;;;;;;;;;;;;;;;15.82;88.11;101087.16;5114680;28;19924;-75
2021/08/09 07:03:45;;;;;;;;;;;;;;;15.70;88.49;101085.44;5114433;28;19924;-75
2021/08/09 07:06:17;;;;;;;;;;;;;;;15.87;87.52;101088.47;5114623;28;20026;-75
2021/08/09 07:08:43;;;;;;;;;;;;;;;16.00;87.96;101090.22;5114668;28;19946;-75
2021/08/09 07:11:11;;;;;;;;;;;;;;;15.82;87.86;101093.22;5114464;28;19931;-75
2021/08/09 07:13:38;;;;;;;;;;;;;;;15.60;88.89;101096.53;5114283;28;19923;-75
2021/08/09 07:16:05;;;;;;;;;;;;;;;15.53;88.89;101097.06;5114253;28;19923;-75
2021/08/09 07:18:32;;;;;;;;;;;;;;;15.57;88.81;101093.28;5114137;28;19924;-75
2021/08/09 07:20:59;;;;;;;;;;;;;;;15.42;90.02;101097.81;5113917;28;19970;-75
2021/08/09 07:23:25;;;;;;;;;;;;;;;15.58;89.18;101093.16;5114095;28;19928;-75
2021/08/09 07:25:52;;;;;;;;;;;;;;;15.68;88.92;101099.44;5114134;28;20405;-75
2021/08/09 07:28:20;;;;;;;;;;;;;;;15.63;89.13;101090.22;5114067;28;19928;-75
2021/08/09 07:30:46;;;;;;;;;;;;;;;15.60;89.08;101093.06;5114333;28;19924;-75
2021/08/09 07:33:13;;;;;;;;;;;;;;;15.58;88.99;101084.47;5113721;28;19924;-75
2021/08/09 07:35:40;;;;;;;;;;;;;;;15.75;88.17;101088.53;5113792;28;19974;-76
2021/08/09 07:38:06;;;;;;;;;;;;;;;15.67;88.88;101089.06;5113922;28;19923;-76
2021/08/09 07:40:33;;;;;;;;;;;;;;;15.67;88.48;101082.03;5113807;28;19930;-76
2021/08/09 07:42:59;;;;;;;;;;;;;;;15.53;89.35;101091.81;5113524;28;19928;-76
2021/08/09 07:45:28;;;;;;;;;;;;;;;15.50;89.73;101090.25;5114016;28;19924;-75
2021/08/09 07:47:55;;;;;;;;;;;;;;;15.66;89.05;101090.84;5113576;28;19924;-75
2021/08/09 07:50:22;;;;;;;;;;;;;;;15.48;90.15;101092.13;5113631;28;19969;-76
2021/08/09 07:52:48;;;;;;;;;;;;;;;15.27;91.95;101089.22;5113893;28;19930;-76
2021/08/09 07:55:15;;;;;;;;;;;;;;;15.21;92.36;101076.56;5113241;28;20263;-76
2021/08/09 07:57:42;;;;;;;;;;;;;;;15.30;92.72;101080.31;5113749;28;19946;-75
2021/08/09 08:00:09;;;;;;;;;;;;;;;15.40;91.57;101087.44;5113250;28;19924;-76
2021/08/09 08:02:37;;;;;;;;;;;;;;;15.48;91.33;101086.91;5113340;28;19924;-76
2021/08/09 08:05:04;;;;;;;;;;;;;;;15.53;90.54;101086.56;5113104;28;20386;-76
2021/08/09 08:07:32;;;;;;;;;;;;;;;15.52;91.05;101090.16;5113367;28;20374;-76
2021/08/09 08:09:58;;;;;;;;;;;;;;;15.33;92.23;101093.22;5113409;28;20342;-76
2021/08/09 08:12:25;;;;;;;;;;;;;;;15.19;93.45;101084.53;5113319;28;20415;-75
2021/08/09 08:14:52;;;;;;;;;;;;;;;15.22;92.47;101084.31;5113397;28;19923;-76
2021/08/09 08:17:18;;;;;;;;;;;;;;;15.18;92.92;101085.47;5112706;28;20442;-76
2021/08/09 08:19:46;;;;;;;;;;;;;;;15.28;92.55;101088.28;5113469;28;19931;-76
2021/08/09 08:22:13;;;;;;;;;;;;;;;15.32;92.41;101091.53;5113152;28;19961;-76
2021/08/09 08:24:39;;;;;;;;;;;;;;;15.36;92.52;101096.47;5113047;28;19924;-75
2021/08/09 08:27:06;;;;;;;;;;;;;;;15.38;92.65;101105.03;5113035;28;19928;-76
2021/08/09 08:29:33;;;;;;;;;;;;;;;15.42;92.08;101093.41;5113229;28;19924;-76
2021/08/09 08:31:59;;;;;;;;;;;;;;;15.35;92.73;101100.03;5112447;28;20382;-76
2021/08/09 08:34:26;;;;;;;;;;;;;;;15.29;92.21;101097.00;5113069;28;19934;-76
2021/08/09 08:36:54;;;;;;;;;;;;;;;15.31;92.27;101100.34;5112985;28;19923;-76
2021/08/09 08:39:20;;;;;;;;;;;;;;;15.28;92.88;101098.75;5112591;28;19928;-76
2021/08/09 08:41:47;;;;;;;;;;;;;;;15.28;92.71;101100.56;5113110;28;19924;-76
2021/08/09 08:44:17;;;;;;;;;;;;;;;15.31;92.86;101092.47;5112602;28;19930;-76
2021/08/09 08:46:45;;;;;;;;;;;;;;;15.34;92.49;101103.59;5113117;28;19973;-76
2021/08/09 08:49:14;;;;;;;;;;;;;;;15.34;92.39;101100.16;5112543;28;19924;-76
2021/08/09 08:51:41;;;;;;;;;;;;;;;15.42;92.31;101103.06;5112711;28;19931;-76
2021/08/09 08:54:11;;;;;;;;;;;;;;;15.38;93.47;101099.81;5112512;28;19924;-76
2021/08/09 08:56:38;;;;;;;;;;;;;;;15.33;92.22;101095.81;5113347;28;20042;-76
2021/08/09 08:59:06;;;;;;;;;;;;;;;15.21;92.92;101093.13;5112263;28;19924;-76
2021/08/09 09:01:33;;;;;;;;;;;;;;;15.30;92.41;101094.25;5112714;28;19930;-76
2021/08/09 09:04:00;;;;;;;;;;;;;;;15.28;92.95;101092.69;5112741;28;20123;-76
2021/08/09 09:06:26;;;;;;;;;;;;;;;15.32;92.12;101089.75;5112965;28;19924;-76
2021/08/09 09:08:53;;;;;;;;;;;;;;;15.16;93.60;101107.50;5112918;28;19923;-76
2021/08/09 09:11:34;;;;;;;;;;;;;;;15.28;92.89;101106.63;5112224;28;19924;-76
2021/08/09 09:14:03;;;;;;;;;;;;;;;15.32;92.99;101108.09;5112653;28;19923;-76
2021/08/09 09:16:43;;;;;;;;;;;;;;;15.54;92.33;101111.84;5112491;28;20330;-76
2021/08/09 09:19:10;;;;;;;;;;;;;;;15.46;92.14;101112.38;5112318;28;19931;-76
2021/08/09 09:21:37;;;;;;;;;;;;;;;15.48;91.98;101113.13;5112435;28;20391;-76
2021/08/09 09:24:08;;;;;;;;;;;;;;;15.53;92.77;101110.19;5112207;28;19923;-76
2021/08/09 09:26:34;;;;;;;;;;;;;;;15.60;92.13;101116.69;5112474;28;19923;-76
2021/08/09 09:29:07;;;;;;;;;;;;;;;15.64;92.18;101112.88;5112438;28;19927;-76
2021/08/09 09:31:34;;;;;;;;;;;;;;;15.60;92.36;101116.69;5112444;28;19924;-76
2021/08/09 09:34:04;;;;;;;;;;;;;;;15.43;93.42;101116.06;5112457;28;19927;-76
2021/08/09 09:36:44;;;;;;;;;;;;;;;15.55;92.60;101113.53;5112259;28;20022;-76
2021/08/09 09:39:25;;;;;;;;;;;;;;;15.57;92.64;101111.66;5112361;28;19977;-76
2021/08/09 09:41:52;;;;;;;;;;;;;;;15.65;92.40;101118.03;5112540;28;19924;-76
2021/08/09 09:44:23;;;;;;;;;;;;;;;15.64;92.04;101120.75;5112915;28;19927;-76
2021/08/09 09:46:49;;;;;;;;;;;;;;;15.62;91.90;101114.78;5116063;28;19924;-76
2021/08/09 09:49:31;;;;;;;;;;;;;;;15.82;91.15;101114.22;5115694;28;20290;-76
2021/08/09 09:51:57;;;;;;;;;;;;;;;15.80;91.76;101112.66;5115859;28;19924;-76
2021/08/09 09:54:24;;;;;;;;;;;;;;;15.72;92.17;101112.34;5116096;28;19924;-76
2021/08/09 09:56:51;;;;;;;;;;;;;;;15.80;91.33;101116.13;5115804;28;19934;-76
2021/08/09 09:59:18;;;;;;;;;;;;;;;15.68;92.66;101107.31;5115488;28;19928;-76
2021/08/09 10:01:46;;;;;;;;;;;;;;;15.59;92.71;101107.97;5115655;28;20010;-76
2021/08/09 10:04:13;;;;;;;;;;;;;;;15.85;92.42;101107.91;5115785;28;19946;-76
2021/08/09 10:06:40;;;;;;;;;;;;;;;15.93;91.19;101108.22;5115710;28;20402;-76
2021/08/09 10:09:08;;;;;;;;;;;;;;;15.81;91.92;101103.84;5115313;28;20285;-76
2021/08/09 10:11:36;;;;;;;;;;;;;;;15.96;91.12;101105.38;5115854;28;19930;-76
2021/08/09 10:14:03;;;;;;;;;;;;;;;15.99;91.05;101112.19;5115620;28;19924;-76
2021/08/09 10:16:32;;;;;;;;;;;;;;;16.00;91.37;101117.31;5115611;28;19930;-77
2021/08/09 10:19:01;;;;;;;;;;;;;;;16.08;90.58;101111.50;5115396;28;19930;-76
2021/08/09 10:21:29;;;;;;;;;;;;;;;16.10;90.30;101114.84;5115599;28;19946;-76
2021/08/09 10:23:56;;;;;;;;;;;;;;;16.13;90.91;101113.81;5115410;28;19923;-76
2021/08/09 10:26:40;;;;;;;;;;;;;;;16.00;92.42;101116.47;5115413;28;19923;-76
2021/08/09 10:29:08;;;;;;;;;;;;;;;16.16;90.39;101114.44;5114374;28;19943;-76
2021/08/09 10:31:36;;;;;;;;;;;;;;;16.17;91.50;101113.47;5115541;28;19923;-76
2021/08/09 10:34:05;;;;;;;;;;;;;;;16.22;90.69;101110.53;5115236;28;19928;-76
2021/08/09 10:36:46;;;;;;;;;;;;;;;16.26;91.07;101111.94;5115443;28;19932;-76
2021/08/09 10:39:33;;;;;;;;;;;;;;;16.28;91.00;101113.50;5113882;28;20285;-76
2021/08/09 10:42:00;;;;;;;;;;;;;;;16.35;90.46;101100.78;5114609;28;19930;-76
2021/08/09 10:44:26;;;;;;;;;;;;;;;16.48;90.92;101100.72;5115151;28;19928;-76
2021/08/09 10:46:54;;;;;;;;;;;;;;;16.61;89.31;101104.09;5114872;28;20293;-76
2021/08/09 10:49:39;;;;;;;;;;;;;;;16.57;89.32;101099.19;5114880;28;19934;-76
2021/08/09 10:52:08;;;;;;;;;;;;;;;16.45;90.63;101099.16;5114348;28;20377;-76
2021/08/09 10:54:35;;;;;;;;;;;;;;;16.80;89.82;101098.34;5115034;28;19924;-76
2021/08/09 10:57:02;;;;;;;;;;;;;;;16.94;87.69;101094.66;5114406;28;19930;-76
2021/08/09 10:59:42;;;;;;;;;;;;;;;16.90;89.48;101095.84;5114561;28;20369;-76
2021/08/09 11:02:35;;;;;;;;;;;;;;;17.03;88.78;101096.59;5114429;28;19992;-76
2021/08/09 11:05:20;;;;;;;;;;;;;;;17.13;88.99;101100.16;5114347;28;19953;-76
2021/08/09 11:08:08;;;;;;;;;;;;;;;16.90;88.57;101093.19;5114491;28;19924;-76
2021/08/09 11:10:50;;;;;;;;;;;;;;;16.69;89.69;101098.25;5114308;28;19924;-76
2021/08/09 11:13:16;;;;;;;;;;;;;;;16.71;89.96;101091.94;5113378;28;19930;-76
2021/08/09 11:15:53;;;;;;;;;;;;;;;16.80;89.95;101095.72;5114587;28;19974;-77
2021/08/09 11:18:20;;;;;;;;;;;;;;;16.85;89.11;101101.47;5113847;28;20460;-76
2021/08/09 11:20:46;;;;;;;;;;;;;;;16.81;89.05;101096.56;5114521;28;19946;-76
2021/08/09 11:23:16;;;;;;;;;;;;;;;16.69;90.42;101098.25;5113795;28;19924;-74
2021/08/09 11:25:43;;;;;;;;;;;;;;;16.69;89.59;101106.16;5114101;28;19924;-76
2021/08/09 11:28:11;;;;;;;;;;;;;;;16.70;89.37;101099.97;5113754;28;19924;-77
2021/08/09 11:30:40;;;;;;;;;;;;;;;16.63;89.94;101106.63;5114263;28;19931;-76
2021/08/09 11:33:08;;;;;;;;;;;;;;;16.56;88.78;101100.97;5114084;28;19931;-76
2021/08/09 11:35:42;;;;;;;;;;;;;;;16.52;89.87;101104.81;5114276;28;19930;-76
2021/08/09 11:38:08;;;;;;;;;;;;;;;16.40;90.93;101106.53;5113532;28;19923;-76
2021/08/09 11:40:40;;;;;;;;;;;;;;;16.51;90.37;101100.47;5113782;28;20274;-77
2021/08/09 11:43:07;;;;;;;;;;;;;;;16.60;89.95;101101.59;5113595;28;19924;-76
2021/08/09 11:45:34;;;;;;;;;;;;;;;16.58;90.56;101101.72;5113675;28;19923;-76
2021/08/09 11:48:00;;;;;;;;;;;;;;;16.96;88.49;101108.53;5113752;28;19931;-76
2021/08/09 11:50:33;;;;;;;;;;;;;;;17.74;87.20;101098.94;5113823;28;19924;-76
2021/08/09 11:53:00;;;;;;;;;;;;;;;18.61;83.76;101099.75;5113331;28;19924;-76
2021/08/09 11:55:27;;;;;;;;;;;;;;;20.39;76.33;101104.56;5114107;28;19939;-76
2021/08/09 11:57:55;;;;;;;;;;;;;;;21.61;72.15;101088.81;5113651;28;19924;-76
2021/08/09 12:00:24;;;;;;;;;;;;;;;22.11;70.81;101085.69;5113147;28;19930;-76
2021/08/09 12:03:12;;;;;;;;;;;;;;;21.46;72.18;101080.53;5113432;28;20434;-76
2021/08/09 12:05:38;;;;;;;;;;;;;;;20.78;73.80;101080.75;5106639;28;20492;-76
2021/08/09 12:08:06;;;;;;;;;;;;;;;20.88;74.02;101066.56;5112739;28;19924;-76
2021/08/09 12:10:33;;;;;;;;;;;;;;;22.37;70.67;101077.81;5113200;28;20018;-75
2021/08/09 12:13:01;;;;;;;;;;;;;;;24.61;64.40;101077.50;5113285;28;19924;-75
2021/08/09 12:15:28;;;;;;;;;;;;;;;23.04;66.02;101065.72;5113293;28;20033;-75
2021/08/09 12:18:06;;;;;;;;;;;;;;;22.75;67.94;101075.78;5113160;28;19924;-75
2021/08/09 12:20:33;;;;;;;;;;;;;;;22.26;71.92;101078.06;5113019;28;19923;-75
2021/08/09 12:22:59;;;;;;;;;;;;;;;22.38;69.33;101085.63;5113140;28;19924;-76
2021/08/09 12:25:36;;;;;;;;;;;;;;;21.30;72.46;101083.78;5113010;28;20381;-76
2021/08/09 12:28:07;;;;;;;;;;;;;;;20.68;73.64;101078.16;5114265;28;21488;-76
2021/08/09 12:30:52;;;;;;;;;;;;;;;21.28;73.35;101083.94;5112958;28;19934;-76
2021/08/09 12:33:19;;;;;;;;;;;;;;;23.35;66.74;101075.81;5113496;28;20393;-76
2021/08/09 12:35:46;;;;;;;;;;;;;;;23.65;64.07;101087.66;5113251;28;20235;-76
2021/08/09 12:38:14;;;;;;;;;;;;;;;22.53;68.17;101079.75;5113005;28;19927;-76
2021/08/09 12:40:41;;;;;;;;;;;;;;;21.93;71.17;101085.69;5113173;28;19924;-76